Time;durP1;ratioP1;P1;durP2;ratioP2;P2;SDS_P1;SDS_P2;PMS_P1;PMS_P2;Temp;Humidity;BMP_temperature;BMP_pressure;BME280_temperature;BME280_humidity;BME280_pressure;Samples;Min_cycle;Max_cycle;Signal;HPM_P1;HPM_P2
2024/04/16 00:02:05;;;;;;;0.50;0.50;;;;;;;13.63;100.00;98323.88;5455301;26;20341;-61
2024/04/16 00:04:33;;;;;;;0.40;0.40;;;;;;;13.78;100.00;98334.41;5455633;26;19998;-61
2024/04/16 00:07:07;;;;;;;0.60;0.60;;;;;;;13.83;99.92;98341.94;5455079;26;20333;-61
2024/04/16 00:09:35;;;;;;;0.57;0.57;;;;;;;13.88;100.00;98340.06;5455291;26;20517;-64
2024/04/16 00:12:06;;;;;;;0.40;0.40;;;;;;;13.89;99.93;98331.47;5455063;26;20466;-64
2024/04/16 00:14:54;;;;;;;0.40;0.40;;;;;;;13.94;99.76;98319.34;5454881;26;19995;-61
2024/04/16 00:17:27;;;;;;;0.63;0.63;;;;;;;13.92;99.73;98308.25;5453161;26;20046;-61
2024/04/16 00:19:55;;;;;;;0.45;0.43;;;;;;;13.86;99.94;98305.94;5455062;26;19999;-61
2024/04/16 00:22:29;;;;;;;0.60;0.60;;;;;;;13.84;99.81;98315.41;5455140;26;20010;-61
2024/04/16 00:24:56;;;;;;;1.58;1.35;;;;;;;13.89;99.81;98321.22;5455076;26;20003;-61
2024/04/16 00:27:27;;;;;;;0.30;0.30;;;;;;;13.91;99.72;98322.00;5455020;26;20002;-61
2024/04/16 00:29:57;;;;;;;0.70;0.70;;;;;;;13.96;99.59;98317.53;5455229;26;20009;-61
2024/04/16 00:32:27;;;;;;;1.65;0.93;;;;;;;13.96;99.91;98320.91;5453266;26;20007;-61
2024/04/16 00:34:55;;;;;;;0.55;0.55;;;;;;;13.96;99.61;98320.91;5453205;26;20458;-62
2024/04/16 00:37:29;;;;;;;0.45;0.45;;;;;;;13.91;99.43;98329.69;5422995;26;20047;-61
2024/04/16 00:39:57;;;;;;;0.52;0.52;;;;;;;13.83;99.56;98324.00;5454867;26;20014;-61
2024/04/16 00:42:28;;;;;;;0.60;0.60;;;;;;;13.78;99.18;98321.59;5454622;26;19999;-64
2024/04/16 00:44:56;;;;;;;0.43;0.43;;;;;;;13.76;99.49;98328.50;5454886;26;20453;-63
2024/04/16 00:47:27;;;;;;;0.60;0.60;;;;;;;13.76;99.88;98330.22;5454571;26;20362;-63
2024/04/16 00:49:54;;;;;;;0.60;0.60;;;;;;;13.80;99.81;98324.94;5452995;26;20341;-63
2024/04/16 00:52:25;;;;;;;0.40;0.40;;;;;;;13.88;99.83;98340.06;5454766;26;20036;-64
2024/04/16 00:54:57;;;;;;;0.68;0.68;;;;;;;13.81;99.69;98323.22;5452679;26;20075;-61
2024/04/16 00:57:28;;;;;;;0.57;0.57;;;;;;;13.84;99.60;98333.38;5454532;26;20042;-63
2024/04/16 00:59:58;;;;;;;0.68;0.60;;;;;;;13.74;99.57;98320.03;5455067;26;19999;-64
2024/04/16 01:02:28;;;;;;;0.60;0.60;;;;;;;13.61;99.94;98297.44;5454431;26;20024;-64
2024/04/16 01:04:56;;;;;;;5.20;1.95;;;;;;;13.68;100.00;98320.22;5454350;26;20117;-64
2024/04/16 01:07:27;;;;;;;1.23;0.88;;;;;;;13.64;100.00;98313.56;5454231;26;19999;-65
2024/04/16 01:09:58;;;;;;;0.40;0.40;;;;;;;13.59;100.00;98317.16;5454600;26;19999;-61
2024/04/16 01:12:29;;;;;;;2.22;1.45;;;;;;;13.61;100.00;98307.69;5454334;26;20029;-61
2024/04/16 01:14:57;;;;;;;0.60;0.60;;;;;;;13.61;100.00;98308.53;5452372;26;20007;-62
2024/04/16 01:17:28;;;;;;;0.52;0.52;;;;;;;13.62;100.00;98307.66;5454088;26;20011;-64
2024/04/16 01:19:56;;;;;;;0.50;0.50;;;;;;;13.61;100.00;98302.56;5454272;26;20010;-62
2024/04/16 01:22:28;;;;;;;0.50;0.50;;;;;;;13.58;100.00;98302.69;5453939;26;20003;-61
2024/04/16 01:24:59;;;;;;;0.65;0.65;;;;;;;13.55;100.00;98308.75;5454178;26;20039;-64
2024/04/16 01:27:30;;;;;;;1.45;1.35;;;;;;;13.54;100.00;98316.47;5452209;26;20003;-64
2024/04/16 01:29:58;;;;;;;0.50;0.50;;;;;;;13.56;100.00;98322.38;5452310;26;20011;-64
2024/04/16 01:32:28;;;;;;;0.40;0.40;;;;;;;13.58;100.00;98318.06;5453745;26;20035;-64
2024/04/16 01:34:56;;;;;;;1.20;0.85;;;;;;;13.57;100.00;98326.63;5453722;26;20011;-63
2024/04/16 01:37:27;;;;;;;0.52;0.52;;;;;;;13.54;100.00;98321.59;5453783;26;19998;-64
2024/04/16 01:39:55;;;;;;;0.60;0.60;;;;;;;13.44;100.00;98306.53;5454015;26;20336;-64
2024/04/16 01:42:29;;;;;;;0.40;0.40;;;;;;;13.44;100.00;98316.78;5453660;26;20015;-64
2024/04/16 01:44:59;;;;;;;8.98;0.82;;;;;;;13.54;100.00;98342.09;5456251;26;20010;-64
2024/04/16 01:47:30;;;;;;;0.68;0.68;;;;;;;13.42;100.00;98328.84;5425484;26;20445;-61
2024/04/16 01:49:58;;;;;;;0.40;0.40;;;;;;;13.54;100.00;98383.13;5457084;26;19999;-62
2024/04/16 01:52:29;;;;;;;1.00;0.93;;;;;;;13.51;100.00;98370.44;5456957;26;20014;-64
2024/04/16 01:54:57;;;;;;;0.45;0.45;;;;;;;13.41;100.00;98322.03;5457230;26;20003;-64
2024/04/16 01:57:30;;;;;;;0.40;0.40;;;;;;;13.01;100.00;98272.13;5457217;26;20075;-64
2024/04/16 01:59:58;;;;;;;0.40;0.40;;;;;;;13.24;100.00;98285.91;5456987;26;20509;-63
2024/04/16 02:02:29;;;;;;;0.50;0.50;;;;;;;13.25;100.00;98295.25;5457136;26;20010;-64
2024/04/16 02:04:56;;;;;;;0.40;0.40;;;;;;;13.24;100.00;98280.78;5457175;26;20306;-63
2024/04/16 02:07:30;;;;;;;0.30;0.30;;;;;;;13.23;100.00;98284.22;5456835;26;20007;-63
2024/04/16 02:09:58;;;;;;;0.80;0.65;;;;;;;13.18;100.00;98273.28;5456915;26;20437;-64
2024/04/16 02:12:32;;;;;;;1.65;1.15;;;;;;;13.19;100.00;98300.59;5456628;26;19999;-63
2024/04/16 02:15:00;;;;;;;2.10;1.33;;;;;;;13.20;100.00;98307.38;5454788;26;20010;-63
2024/04/16 02:17:30;;;;;;;0.40;0.40;;;;;;;13.20;100.00;98312.50;5456736;26;20361;-63
2024/04/16 02:19:58;;;;;;;0.80;0.80;;;;;;;13.22;100.00;98315.84;5457358;26;19999;-64
2024/04/16 02:22:29;;;;;;;0.60;0.60;;;;;;;13.15;100.00;98299.00;5456619;26;20011;-63
2024/04/16 02:24:57;;;;;;;0.40;0.40;;;;;;;13.07;100.00;98301.00;5457058;26;20053;-63
2024/04/16 02:27:28;;;;;;;0.60;0.60;;;;;;;13.04;99.83;98295.94;5456548;26;20018;-63
2024/04/16 02:29:59;;;;;;;0.40;0.40;;;;;;;12.96;99.87;98282.53;5456820;26;20002;-63
2024/04/16 02:32:29;;;;;;;0.52;0.52;;;;;;;12.98;99.00;98291.00;5456332;26;20003;-63
2024/04/16 02:34:57;;;;;;;0.50;0.50;;;;;;;12.99;98.33;98308.03;5456353;26;20018;-62
2024/04/16 02:37:28;;;;;;;0.40;0.40;;;;;;;12.99;97.97;98333.66;5454714;26;19999;-63
2024/04/16 02:39:56;;;;;;;0.40;0.40;;;;;;;13.03;97.29;98330.09;5456424;26;20003;-62
2024/04/16 02:42:27;;;;;;;0.82;0.82;;;;;;;12.96;96.97;98351.69;5456152;26;20002;-63
2024/04/16 02:44:57;;;;;;;0.52;0.52;;;;;;;12.91;96.03;98345.84;5456992;26;20010;-63
2024/04/16 02:47:28;;;;;;;7.13;1.15;;;;;;;12.85;95.68;98361.44;5456450;26;20010;-63
2024/04/16 02:49:58;;;;;;;0.43;0.43;;;;;;;12.79;95.27;98353.91;5456665;26;20003;-63
2024/04/16 02:52:26;;;;;;;0.50;0.50;;;;;;;12.76;94.66;98354.84;5456349;26;20011;-62
2024/04/16 02:54:57;;;;;;;0.73;0.73;;;;;;;12.83;93.83;98352.13;5455686;26;20441;-63
2024/04/16 02:57:25;;;;;;;0.47;0.47;;;;;;;12.79;93.37;98318.06;5456292;26;20003;-63
2024/04/16 02:59:56;;;;;;;0.50;0.50;;;;;;;12.75;93.20;98316.50;5456310;26;20027;-62
2024/04/16 03:02:24;;;;;;;1.15;1.05;;;;;;;12.80;93.22;98332.56;5456412;26;20040;-63
2024/04/16 03:04:57;;;;;;;1.02;0.93;;;;;;;12.76;92.21;98341.25;5454334;26;20010;-63
2024/04/16 03:07:25;;;;;;;0.40;0.40;;;;;;;12.76;91.85;98354.03;5454106;26;20027;-62
2024/04/16 03:09:55;;;;;;;0.30;0.30;;;;;;;12.74;91.94;98356.63;5455675;26;20445;-63
2024/04/16 03:12:23;;;;;;;0.50;0.50;;;;;;;12.74;91.17;98353.25;5456065;26;20011;-62
2024/04/16 03:14:55;;;;;;;0.50;0.50;;;;;;;12.67;91.22;98352.59;5453968;26;20003;-63
2024/04/16 03:17:23;;;;;;;0.50;0.50;;;;;;;12.71;90.95;98366.13;5455910;26;20017;-62
2024/04/16 03:19:53;;;;;;;0.47;0.47;;;;;;;12.75;90.80;98367.72;5455980;26;20337;-63
2024/04/16 03:22:24;;;;;;;0.63;0.63;;;;;;;12.67;90.54;98361.97;5455817;26;19999;-62
2024/04/16 03:24:55;;;;;;;0.50;0.50;;;;;;;12.70;90.80;98377.25;5455764;26;20445;-63
2024/04/16 03:27:23;;;;;;;0.63;0.63;;;;;;;12.66;90.22;98375.69;5456037;26;19999;-63
2024/04/16 03:29:53;;;;;;;0.52;0.52;;;;;;;12.57;90.54;98386.19;5455738;26;20003;-63
2024/04/16 03:32:21;;;;;;;0.50;0.50;;;;;;;12.60;90.12;98401.44;5455713;26;20003;-63
2024/04/16 03:34:52;;;;;;;0.40;0.40;;;;;;;12.42;89.52;98401.97;5456066;26;19998;-64
2024/04/16 03:37:24;;;;;;;0.60;0.60;;;;;;;12.32;89.95;98418.47;5454266;26;19999;-64
2024/04/16 03:39:57;;;;;;;0.57;0.57;;;;;;;12.30;89.40;98421.09;5453670;26;20489;-63
2024/04/16 03:42:28;;;;;;;0.65;0.65;;;;;;;12.28;89.48;98425.41;5455842;26;20038;-63
2024/04/16 03:44:56;;;;;;;0.50;0.50;;;;;;;12.20;89.82;98426.47;5455590;26;20003;-63
2024/04/16 03:47:27;;;;;;;0.70;0.70;;;;;;;12.11;89.61;98417.34;5455327;26;20014;-64
2024/04/16 03:49:55;;;;;;;3.03;1.60;;;;;;;12.06;89.03;98430.28;5455428;26;20543;-63
2024/04/16 03:52:25;;;;;;;0.40;0.40;;;;;;;12.03;88.74;98434.59;5453468;26;20052;-64
2024/04/16 03:54:56;;;;;;;0.45;0.45;;;;;;;11.92;88.39;98440.03;5455645;26;20314;-63
2024/04/16 03:57:26;;;;;;;0.40;0.40;;;;;;;11.80;88.56;98448.00;5455349;26;19999;-63
2024/04/16 04:02:38;;;;;;;0.40;0.40;;;;;;;11.68;87.77;98453.44;5455352;26;20009;-64
2024/04/16 04:05:09;;;;;;;0.90;0.82;;;;;;;11.66;87.63;98444.91;5455037;26;19999;-64
2024/04/16 04:07:36;;;;;;;0.52;0.52;;;;;;;11.66;87.41;98439.78;5453686;26;20014;-64
2024/04/16 04:10:10;;;;;;;0.43;0.43;;;;;;;11.77;87.46;98448.06;5455087;26;20021;-63
2024/04/16 04:12:38;;;;;;;0.45;0.45;;;;;;;11.75;87.26;98465.19;5455165;26;20010;-63
2024/04/16 04:15:09;;;;;;;0.30;0.30;;;;;;;11.69;86.76;98470.41;5454933;26;20006;-63
2024/04/16 04:17:38;;;;;;;1.05;0.98;;;;;;;11.65;87.17;98476.47;5455115;26;20352;-63
2024/04/16 04:20:09;;;;;;;1.02;1.02;;;;;;;11.61;87.59;98466.34;5454753;26;20003;-63
2024/04/16 04:22:37;;;;;;;0.73;0.73;;;;;;;11.55;87.10;98469.88;5455099;26;20067;-63
2024/04/16 04:25:14;;;;;;;0.40;0.40;;;;;;;11.40;87.08;98462.59;5453045;26;19999;-64
2024/04/16 04:27:42;;;;;;;0.40;0.40;;;;;;;11.32;86.80;98459.38;5455228;26;20011;-63
2024/04/16 04:30:13;;;;;;;0.30;0.30;;;;;;;11.28;85.78;98463.72;5453092;26;20010;-63
2024/04/16 04:32:47;;;;;;;0.40;0.40;;;;;;;11.30;85.46;98471.34;5453050;26;20083;-63
2024/04/16 04:35:18;;;;;;;0.43;0.43;;;;;;;11.28;84.98;98473.09;5454714;26;20017;-63
2024/04/16 04:37:46;;;;;;;0.80;0.60;;;;;;;11.12;83.90;98461.53;5452968;26;20368;-63
2024/04/16 04:40:19;;;;;;;0.35;0.35;;;;;;;10.91;82.55;98450.09;5454701;26;20009;-62
2024/04/16 04:42:48;;;;;;;0.68;0.68;;;;;;;10.85;79.49;98462.13;5453026;26;20027;-64
2024/04/16 04:45:19;;;;;;;0.50;0.50;;;;;;;10.75;77.63;98458.94;5454752;26;20422;-63
2024/04/16 04:47:47;;;;;;;0.30;0.30;;;;;;;10.75;77.31;98451.28;5452841;26;20075;-63
2024/04/16 04:50:18;;;;;;;0.65;0.45;;;;;;;10.77;77.27;98459.78;5454898;26;20003;-63
2024/04/16 04:52:45;;;;;;;0.50;0.50;;;;;;;10.78;77.18;98472.50;5452708;26;20003;-63
2024/04/16 04:55:19;;;;;;;0.30;0.30;;;;;;;10.78;77.04;98464.84;5454897;26;19999;-63
2024/04/16 04:57:48;;;;;;;0.40;0.40;;;;;;;10.78;77.27;98477.59;5454470;26;19999;-63
2024/04/16 05:00:19;;;;;;;0.40;0.40;;;;;;;10.76;77.52;98476.81;5452436;26;20036;-63
2024/04/16 05:02:47;;;;;;;0.50;0.50;;;;;;;10.78;77.32;98489.50;5454346;26;20032;-63
2024/04/16 05:05:18;;;;;;;0.32;0.32;;;;;;;10.76;77.75;98504.88;5454335;26;20070;-63
2024/04/16 05:07:46;;;;;;;0.40;0.40;;;;;;;10.70;77.59;98510.06;5454738;26;20010;-63
2024/04/16 05:10:19;;;;;;;0.30;0.30;;;;;;;10.69;77.51;98518.63;5452439;26;20481;-63
2024/04/16 05:12:47;;;;;;;0.40;0.40;;;;;;;10.72;78.05;98531.28;5454278;26;20007;-63
2024/04/16 05:15:17;;;;;;;0.50;0.50;;;;;;;10.62;76.71;98527.28;5454045;26;20402;-63
2024/04/16 05:17:46;;;;;;;0.30;0.30;;;;;;;10.49;76.49;98530.91;5454154;26;20003;-62
2024/04/16 05:20:18;;;;;;;0.40;0.40;;;;;;;10.37;74.86;98536.25;5451392;26;20003;-62
2024/04/16 05:22:48;;;;;;;0.30;0.30;;;;;;;10.27;74.33;98539.00;5422042;26;20009;-63
2024/04/16 05:25:22;;;;;;;10.45;0.80;;;;;;;10.19;73.89;98561.22;5454035;26;20021;-63
2024/04/16 05:27:50;;;;;;;0.40;0.40;;;;;;;10.17;74.46;98562.97;5454215;26;20090;-63
2024/04/16 05:30:21;;;;;;;0.40;0.40;;;;;;;10.03;74.70;98583.53;5452050;26;20007;-63
2024/04/16 05:32:50;;;;;;;0.70;0.70;;;;;;;9.88;74.91;98586.34;5453778;26;20007;-63
2024/04/16 05:35:21;;;;;;;;;;;;;;;9.82;75.23;98584.72;5454522;26;20003;-62
2024/04/16 05:37:49;;;;;;;0.30;0.30;;;;;;;9.70;75.57;98571.34;5453601;26;19932;-62
2024/04/16 05:40:22;;;;;;;0.30;0.30;;;;;;;9.58;75.91;98556.22;5453621;26;20071;-62
2024/04/16 05:42:50;;;;;;;0.32;0.32;;;;;;;9.60;76.04;98554.53;5453615;26;20030;-62
2024/04/16 05:45:20;;;;;;;0.43;0.43;;;;;;;9.62;76.34;98563.00;5453912;26;20433;-62
2024/04/16 05:47:48;;;;;;;0.30;0.30;;;;;;;9.63;76.51;98554.47;5453402;26;20075;-63
2024/04/16 05:50:19;;;;;;;0.40;0.40;;;;;;;9.66;76.74;98562.06;5453509;26;20015;-62
2024/04/16 05:52:47;;;;;;;0.30;0.30;;;;;;;9.71;77.03;98545.84;5453374;26;19999;-63
2024/04/16 05:55:17;;;;;;;0.30;0.30;;;;;;;9.63;76.89;98549.38;5453406;26;20416;-62
2024/04/16 05:57:48;;;;;;;0.30;0.30;;;;;;;9.64;77.10;98529.00;5453742;26;20010;-63
2024/04/16 06:00:21;;;;;;;0.38;0.38;;;;;;;9.75;77.39;98519.47;5453416;26;20010;-63
2024/04/16 06:02:49;;;;;;;0.40;0.40;;;;;;;9.84;77.54;98518.44;5451864;26;20314;-62
2024/04/16 06:05:20;;;;;;;0.50;0.50;;;;;;;9.90;77.79;98508.16;5452950;26;20003;-62
2024/04/16 06:07:48;;;;;;;1.08;0.50;;;;;;;9.89;78.32;98498.84;5453729;26;20438;-60
2024/04/16 06:10:18;;;;;;;0.57;0.57;;;;;;;9.95;78.14;98496.19;5453228;26;20361;-61
2024/04/16 06:12:49;;;;;;;0.50;0.50;;;;;;;9.96;78.13;98501.25;5453279;26;20034;-62
2024/04/16 06:15:19;;;;;;;0.35;0.35;;;;;;;10.05;78.39;98502.81;5453579;26;20003;-61
2024/04/16 06:17:47;;;;;;;1.55;0.70;;;;;;;10.00;78.17;98507.16;5452929;26;20402;-63
2024/04/16 06:20:18;;;;;;;0.95;0.60;;;;;;;9.90;77.85;98509.03;5452901;26;20071;-63
2024/04/16 06:22:46;;;;;;;0.40;0.40;;;;;;;9.94;78.13;98525.09;5452957;26;20031;-61
2024/04/16 06:25:17;;;;;;;0.60;0.60;;;;;;;9.87;77.55;98533.69;5452938;26;20023;-60
2024/04/16 06:27:51;;;;;;;0.32;0.32;;;;;;;9.67;77.07;98545.94;5449709;26;19999;-60
2024/04/16 06:30:22;;;;;;;0.40;0.40;;;;;;;9.63;77.34;98549.38;5453166;26;20011;-60
2024/04/16 06:32:50;;;;;;;0.40;0.40;;;;;;;9.55;76.71;98558.84;5456621;26;20040;-60
2024/04/16 06:35:20;;;;;;;1.45;1.00;;;;;;;9.56;76.46;98563.06;5456520;26;20015;-60
2024/04/16 06:37:48;;;;;;;0.30;0.30;;;;;;;9.58;76.83;98574.91;5454645;26;20445;-62
2024/04/16 06:40:19;;;;;;;0.30;0.30;;;;;;;9.53;76.82;98593.66;5456501;26;20075;-62
2024/04/16 06:42:54;;;;;;;0.40;0.40;;;;;;;9.54;77.06;98586.00;5456323;26;20026;-62
2024/04/16 06:45:25;;;;;;;0.30;0.30;;;;;;;9.60;76.94;98590.19;5456238;26;20166;-63
2024/04/16 06:47:53;;;;;;;0.40;0.40;;;;;;;9.56;77.35;98593.63;5456593;26;20010;-62
2024/04/16 06:50:24;;;;;;;0.50;0.50;;;;;;;9.57;77.44;98596.16;5456082;26;20009;-62
2024/04/16 06:52:54;;;;;;;0.85;0.85;;;;;;;9.59;77.47;98593.59;5454414;26;20009;-62
2024/04/16 06:55:25;;;;;;;0.30;0.30;;;;;;;9.55;77.62;98602.16;5456158;26;20040;-63
2024/04/16 06:57:57;;;;;;;0.50;0.50;;;;;;;9.49;77.69;98602.22;5456355;26;20015;-60
2024/04/16 07:00:28;;;;;;;0.30;0.30;;;;;;;9.54;78.02;98591.13;5456733;26;20002;-63
2024/04/16 07:02:56;;;;;;;0.30;0.30;;;;;;;9.49;77.51;98602.22;5456126;26;20049;-62
2024/04/16 07:05:26;;;;;;;0.35;0.35;;;;;;;9.49;77.55;98597.13;5455875;26;20137;-63
2024/04/16 07:07:54;;;;;;;4.28;2.20;;;;;;;9.43;77.25;98588.69;5455974;26;19999;-60
2024/04/16 07:10:25;;;;;;;0.40;0.40;;;;;;;9.50;77.25;98598.81;5454077;26;20022;-60
2024/04/16 07:12:55;;;;;;;0.30;0.30;;;;;;;9.51;77.29;98611.53;5453800;26;19995;-63
2024/04/16 07:15:26;;;;;;;0.20;0.20;;;;;;;9.50;77.38;98619.19;5455692;26;20014;-62
2024/04/16 07:17:56;;;;;;;0.30;0.30;;;;;;;9.34;76.40;98624.47;5456129;26;20153;-62
2024/04/16 07:20:26;;;;;;;0.30;0.30;;;;;;;9.33;76.10;98616.88;5455821;26;20003;-62
2024/04/16 07:22:54;;;;;;;0.30;0.30;;;;;;;9.26;75.28;98610.19;5455750;26;20341;-62
2024/04/16 07:25:25;;;;;;;0.47;0.47;;;;;;;9.25;75.08;98606.78;5455601;26;20071;-62
2024/04/16 07:27:55;;;;;;;0.30;0.30;;;;;;;9.38;nan;98607.47;5444673;26;19999;-62
2024/04/16 07:30:26;;;;;;;0.30;0.30;;;;;;;9.44;75.52;98613.31;5430990;26;20016;-61
2024/04/16 07:32:55;;;;;;;0.63;0.63;;;;;;;9.52;75.43;98597.94;5419659;26;20505;-62
2024/04/16 07:35:26;;;;;;;0.40;0.40;;;;;;;9.48;74.13;98593.72;5417975;26;20011;-60
2024/04/16 07:37:53;;;;;;;0.30;0.30;;;;;;;9.33;72.50;98601.59;5419700;26;19999;-61
2024/04/16 07:40:24;;;;;;;0.30;0.30;;;;;;;9.26;72.16;98608.44;5419544;26;20003;-60
2024/04/16 07:42:55;;;;;;;0.22;0.22;;;;;;;9.16;71.64;98614.53;5419593;26;20453;-61
2024/04/16 07:45:25;;;;;;;0.30;0.30;;;;;;;9.09;71.50;98612.94;5419676;26;20044;-61
2024/04/16 07:47:53;;;;;;;0.70;0.70;;;;;;;9.05;71.21;98624.00;5419802;26;20434;-62
2024/04/16 07:50:24;;;;;;;0.38;0.38;;;;;;;9.06;71.13;98633.31;5419019;26;20004;-62
2024/04/16 07:52:52;;;;;;;0.30;0.30;;;;;;;9.00;71.45;98633.38;5419774;26;20000;-62
2024/04/16 07:55:22;;;;;;;0.32;0.32;;;;;;;8.96;71.36;98646.16;5419348;26;20076;-61
2024/04/16 07:57:50;;;;;;;0.30;0.30;;;;;;;8.93;71.62;98644.47;5419246;26;20007;-63
2024/04/16 08:00:25;;;;;;;0.50;0.50;;;;;;;8.89;71.84;98630.13;5419382;26;19999;-63
2024/04/16 08:02:54;;;;;;;0.32;0.32;;;;;;;8.86;72.13;98625.06;5417758;26;20011;-60
2024/04/16 08:05:25;;;;;;;0.30;0.30;;;;;;;9.01;71.99;98634.22;5417453;26;19996;-63
2024/04/16 08:07:53;;;;;;;0.30;0.30;;;;;;;9.05;71.99;98644.34;5419204;26;20003;-63
2024/04/16 08:10:23;;;;;;;0.75;0.47;;;;;;;9.01;72.33;98645.25;5419130;26;20464;-63
2024/04/16 08:12:51;;;;;;;0.30;0.30;;;;;;;8.92;72.44;98653.00;5418932;26;20011;-63
2024/04/16 08:15:25;;;;;;;0.28;0.28;;;;;;;8.90;72.69;98647.06;5418910;26;20015;-63
2024/04/16 08:17:53;;;;;;;0.32;0.32;;;;;;;8.90;73.05;98641.16;5419299;26;20003;-63
2024/04/16 08:20:23;;;;;;;0.30;0.30;;;;;;;9.00;73.58;98633.38;5419157;26;20000;-61
2024/04/16 08:22:53;;;;;;;0.40;0.40;;;;;;;8.99;73.32;98641.03;5419412;26;20015;-63
2024/04/16 08:25:23;;;;;;;0.38;0.38;;;;;;;9.09;73.72;98635.00;5417210;26;20076;-64
2024/04/16 08:27:51;;;;;;;0.40;0.40;;;;;;;9.11;74.20;98649.38;5419071;26;20379;-63
2024/04/16 08:30:25;;;;;;;0.40;0.40;;;;;;;9.12;74.29;98648.50;5419165;26;20016;-63
2024/04/16 08:32:53;;;;;;;0.20;0.20;;;;;;;9.10;74.85;98644.28;5418645;26;20007;-61
2024/04/16 08:35:28;;;;;;;0.30;0.30;;;;;;;9.11;75.08;98643.44;5418781;26;20054;-62
2024/04/16 08:37:56;;;;;;;0.30;0.30;;;;;;;9.06;74.92;98647.75;5418748;26;20039;-60
2024/04/16 08:40:26;;;;;;;0.30;0.30;;;;;;;9.00;75.29;98638.47;5416938;26;20132;-61
2024/04/16 08:42:58;;;;;;;0.32;0.32;;;;;;;9.08;75.85;98654.50;5418693;26;20011;-60
2024/04/16 08:45:34;;;;;;;0.30;0.30;;;;;;;9.22;75.65;98665.34;5418816;26;20465;-60
2024/04/16 08:48:04;;;;;;;0.30;0.30;;;;;;;9.35;75.13;98655.88;5418450;26;20003;-61
2024/04/16 08:50:36;;;;;;;0.30;0.30;;;;;;;9.46;75.23;98654.03;5416785;26;20018;-61
2024/04/16 08:53:05;;;;;;;0.20;0.20;;;;;;;9.47;75.00;98654.88;5417856;26;20014;-61
2024/04/16 08:55:37;;;;;;;0.87;0.87;;;;;;;9.50;74.83;98659.94;5418804;26;20015;-61
2024/04/16 08:58:05;;;;;;;0.35;0.35;;;;;;;9.54;75.05;98661.56;5418412;26;20229;-60
2024/04/16 09:00:39;;;;;;;0.60;0.60;;;;;;;9.48;74.33;98674.41;5418577;26;20008;-62
2024/04/16 09:03:07;;;;;;;0.63;0.63;;;;;;;9.40;74.44;98679.59;5416530;26;20032;-63
2024/04/16 09:05:37;;;;;;;0.20;0.20;;;;;;;9.25;74.78;98655.16;5418672;26;19999;-64
2024/04/16 09:08:06;;;;;;;0.28;0.28;;;;;;;9.47;75.03;98699.03;5418439;26;20008;-64
2024/04/16 09:10:36;;;;;;;0.30;0.30;;;;;;;9.40;75.08;98721.19;5416993;26;19995;-64
2024/04/16 09:13:13;;;;;;;0.20;0.20;;;;;;;9.31;74.98;98716.16;5418565;26;20003;-61
2024/04/16 09:15:44;;;;;;;0.35;0.35;;;;;;;9.24;74.93;98712.00;5418590;26;20329;-61
2024/04/16 09:18:15;;;;;;;0.43;0.43;;;;;;;9.12;74.52;98709.59;5416462;26;20007;-63
2024/04/16 09:20:45;;;;;;;0.40;0.40;;;;;;;9.18;74.70;98724.81;5418026;26;20457;-63
2024/04/16 09:23:16;;;;;;;0.30;0.30;;;;;;;9.25;74.75;98728.97;5418300;26;19999;-61
2024/04/16 09:25:44;;;;;;;0.30;0.30;;;;;;;9.26;74.33;98722.19;5416291;26;20353;-61
2024/04/16 09:28:17;;;;;;;0.38;0.38;;;;;;;9.26;74.54;98717.09;5417749;26;20011;-63
2024/04/16 09:30:56;;;;;;;1.08;0.98;;;;;;;9.28;74.21;98703.50;5418149;26;20028;-62
2024/04/16 09:33:30;;;;;;;0.32;0.32;;;;;;;9.27;73.39;98704.34;5417822;26;20327;-63
2024/04/16 09:36:11;;;;;;;1.55;1.10;;;;;;;9.00;73.30;98668.19;5417921;26;20015;-63
2024/04/16 09:38:43;;;;;;;0.38;0.35;;;;;;;9.24;73.19;98709.47;5417738;26;20023;-60
2024/04/16 09:41:12;;;;;;;0.43;0.43;;;;;;;9.11;72.22;98701.97;5417783;26;20016;-61
2024/04/16 09:43:43;;;;;;;0.20;0.20;;;;;;;9.18;72.15;98718.88;5416029;26;20007;-62
2024/04/16 09:46:16;;;;;;;0.30;0.30;;;;;;;8.99;72.38;98680.06;5417812;26;20003;-63
2024/04/16 09:48:49;;;;;;;0.40;0.40;;;;;;;9.11;72.49;98685.03;5418003;26;20022;-62
2024/04/16 09:51:20;;;;;;;0.32;0.32;;;;;;;9.03;72.29;98666.44;5417550;26;20014;-62
2024/04/16 09:53:54;;;;;;;0.25;0.25;;;;;;;9.00;73.13;98665.63;5417765;26;20039;-62
2024/04/16 09:56:24;;;;;;;0.30;0.30;;;;;;;9.12;73.43;98673.97;5417550;26;20013;-61
2024/04/16 09:58:54;;;;;;;0.40;0.40;;;;;;;9.23;73.52;98689.13;5417528;26;20007;-62
2024/04/16 10:01:28;;;;;;;1.65;0.75;;;;;;;9.21;73.05;98678.13;5417460;26;20010;-63
2024/04/16 10:04:01;;;;;;;0.30;0.30;;;;;;;9.05;72.53;98690.16;5415944;26;20036;-62
2024/04/16 10:06:29;;;;;;;0.30;0.30;;;;;;;8.96;72.67;98687.72;5420494;26;20000;-64
2024/04/16 10:08:59;;;;;;;0.35;0.35;;;;;;;8.84;72.10;98708.19;5421101;26;20011;-63
2024/04/16 10:11:29;;;;;;;0.40;0.40;;;;;;;8.71;72.47;98716.78;5420680;26;20344;-62
2024/04/16 10:14:03;;;;;;;4.38;0.75;;;;;;;8.78;73.08;98723.53;5420744;26;20449;-60
2024/04/16 10:16:34;;;;;;;0.30;0.30;;;;;;;8.96;73.85;98712.31;5420645;26;20000;-62
2024/04/16 10:19:08;;;;;;;0.50;0.50;;;;;;;9.05;73.91;98718.16;5420882;26;20353;-60
2024/04/16 10:21:39;;;;;;;1.85;1.05;;;;;;;9.22;73.45;98721.38;5419134;26;20007;-60
2024/04/16 10:24:12;;;;;;;0.30;0.30;;;;;;;9.25;73.18;98715.41;5420732;26;20018;-60
2024/04/16 10:26:43;;;;;;;0.40;0.40;;;;;;;9.12;72.89;98716.38;5420731;26;20000;-61
2024/04/16 10:29:17;;;;;;;0.38;0.38;;;;;;;9.02;73.05;98718.16;5419179;26;20000;-62
2024/04/16 10:31:53;;;;;;;0.30;0.30;;;;;;;9.06;72.81;98726.63;5420462;26;20011;-64
2024/04/16 10:34:25;;;;;;;0.57;0.57;;;;;;;9.15;72.90;98722.28;5420439;26;20004;-63
2024/04/16 10:36:55;;;;;;;0.30;0.30;;;;;;;8.90;72.52;98703.03;5420546;26;20072;-64
2024/04/16 10:39:31;;;;;;;0.85;0.85;;;;;;;8.94;72.47;98702.16;5420265;26;19996;-63
2024/04/16 10:42:01;;;;;;;0.35;0.35;;;;;;;9.07;72.90;98716.44;5420600;26;20018;-62
2024/04/16 10:44:32;;;;;;;0.30;0.30;;;;;;;9.04;72.79;98705.44;5420447;26;20035;-61
2024/04/16 10:47:03;;;;;;;0.38;0.38;;;;;;;9.23;72.63;98738.34;5420457;26;20097;-63
2024/04/16 10:49:34;;;;;;;0.20;0.20;;;;;;;9.22;72.84;98715.44;5420304;26;20472;-63
2024/04/16 10:52:11;;;;;;;0.40;0.40;;;;;;;9.13;72.66;98741.84;5420379;26;20000;-63
2024/04/16 10:54:42;;;;;;;0.40;0.40;;;;;;;9.16;73.23;98741.81;5420429;26;20019;-63
2024/04/16 10:57:10;;;;;;;0.30;0.30;;;;;;;9.16;73.62;98730.78;5420323;26;20023;-63
2024/04/16 10:59:43;;;;;;;0.40;0.40;;;;;;;9.05;73.84;98735.97;5420145;26;20449;-63
2024/04/16 11:02:31;;;;;;;0.25;0.25;;;;;;;8.99;74.29;98725.88;5420058;26;20004;-60
2024/04/16 11:05:02;;;;;;;0.63;0.63;;;;;;;8.95;74.58;98721.63;5420179;26;20072;-63
2024/04/16 11:07:33;;;;;;;0.38;0.38;;;;;;;8.98;74.90;98706.34;5420314;26;19999;-62
2024/04/16 11:10:03;;;;;;;0.50;0.50;;;;;;;8.99;74.65;98702.13;5419901;26;20000;-63
2024/04/16 11:12:32;;;;;;;0.40;0.40;;;;;;;9.01;74.80;98680.03;5418387;26;20474;-63
2024/04/16 11:15:02;;;;;;;0.30;0.30;;;;;;;9.14;75.40;98663.78;5419908;26;20012;-63
2024/04/16 11:17:33;;;;;;;0.40;0.40;;;;;;;9.15;74.28;98656.13;5419048;26;20000;-61
2024/04/16 11:20:05;;;;;;;0.30;0.30;;;;;;;9.08;73.62;98641.78;5420013;26;20476;-61
2024/04/16 11:22:33;;;;;;;0.40;0.40;;;;;;;9.07;73.27;98660.44;5420203;26;20000;-63
2024/04/16 11:25:04;;;;;;;0.40;0.40;;;;;;;9.21;74.06;98668.75;5420079;26;20034;-63
2024/04/16 11:27:32;;;;;;;0.60;0.60;;;;;;;9.25;73.82;98680.59;5417855;26;19999;-61
2024/04/16 11:30:06;;;;;;;1.40;0.77;;;;;;;9.12;73.54;98684.13;5420056;26;20474;-63
2024/04/16 11:32:37;;;;;;;0.32;0.32;;;;;;;9.04;73.91;98691.03;5419765;26;20161;-63
2024/04/16 11:35:09;;;;;;;0.30;0.30;;;;;;;9.03;74.15;98691.03;5419918;26;20071;-64
2024/04/16 11:37:38;;;;;;;0.30;0.30;;;;;;;8.94;74.39;98686.91;5419793;26;20330;-63
2024/04/16 11:40:12;;;;;;;0.30;0.30;;;;;;;8.89;74.24;98683.56;5419934;26;20054;-63
2024/04/16 11:42:40;;;;;;;3.47;0.70;;;;;;;8.89;74.58;98685.25;5419446;26;20003;-64
2024/04/16 11:45:11;;;;;;;0.20;0.20;;;;;;;8.74;74.89;98683.69;5419720;26;20076;-64
2024/04/16 11:47:41;;;;;;;0.32;0.32;;;;;;;8.91;74.68;98712.34;5419623;26;20015;-62
2024/04/16 11:50:14;;;;;;;0.35;0.35;;;;;;;8.75;75.00;98693.03;5417863;26;20000;-64
2024/04/16 11:52:43;;;;;;;0.40;0.40;;;;;;;8.86;75.24;98724.28;5387929;26;19999;-63
2024/04/16 11:55:14;;;;;;;0.30;0.30;;;;;;;8.92;75.87;98720.84;5417517;26;20385;-63